Time;durP1;ratioP1;P1;durP2;ratioP2;P2;SDS_P1;SDS_P2;PMS_P1;PMS_P2;Temp;Humidity;BMP_temperature;BMP_pressure;BME280_temperature;BME280_humidity;BME280_pressure;Samples;Min_cycle;Max_cycle;Signal;HPM_P1;HPM_P2
2021/09/18 00:00:13;;;;;;;21.45;17.05;;;10.50;99.90;;;;;;5033106;28;20388;-73
2021/09/18 00:02:39;;;;;;;23.23;18.35;;;10.40;99.90;;;;;;5031993;28;20025;-73
2021/09/18 00:05:05;;;;;;;22.70;18.75;;;10.40;99.90;;;;;;5032489;28;20041;-72
2021/09/18 00:07:31;;;;;;;25.73;18.90;;;10.40;99.90;;;;;;5031413;28;20024;-73
2021/09/18 00:09:56;;;;;;;29.80;19.50;;;10.40;99.90;;;;;;5033408;28;20029;-72
2021/09/18 00:12:22;;;;;;;26.92;19.35;;;10.40;99.90;;;;;;5031631;28;20036;-73
2021/09/18 00:14:48;;;;;;;28.13;19.75;;;10.30;99.90;;;;;;5033287;28;20389;-72
2021/09/18 00:17:14;;;;;;;21.92;17.35;;;10.30;99.90;;;;;;5034447;28;20021;-73
2021/09/18 00:19:39;;;;;;;29.25;18.95;;;10.30;99.90;;;;;;5034059;28;20395;-73
2021/09/18 00:22:06;;;;;;;26.10;18.23;;;10.30;99.90;;;;;;5033092;28;20594;-72
2021/09/18 00:24:31;;;;;;;29.73;17.80;;;10.30;99.90;;;;;;5032543;28;20049;-72
2021/09/18 00:26:57;;;;;;;24.67;18.55;;;10.30;99.90;;;;;;5032665;28;20443;-72
2021/09/18 00:29:23;;;;;;;26.70;18.33;;;10.30;99.90;;;;;;5031508;28;20104;-72
2021/09/18 00:31:48;;;;;;;24.15;18.80;;;10.30;99.90;;;;;;5032726;28;20116;-73
2021/09/18 00:34:14;;;;;;;24.80;19.42;;;10.20;99.90;;;;;;5032599;28;20131;-73
2021/09/18 00:36:40;;;;;;;25.30;18.73;;;10.20;99.90;;;;;;5031956;28;20049;-72
2021/09/18 00:39:05;;;;;;;26.92;17.65;;;10.20;99.90;;;;;;5032279;28;20022;-72
2021/09/18 00:41:31;;;;;;;29.60;19.73;;;10.20;99.90;;;;;;5032354;28;20094;-73
2021/09/18 00:43:58;;;;;;;27.55;18.85;;;10.20;99.90;;;;;;5032462;28;20593;-72
2021/09/18 00:46:24;;;;;;;24.35;19.85;;;10.20;99.90;;;;;;5031700;28;20021;-72
2021/09/18 00:48:50;;;;;;;27.85;20.00;;;10.20;99.90;;;;;;5032169;28;20037;-73
2021/09/18 00:51:19;;;;;;;27.05;19.38;;;10.20;99.90;;;;;;5032133;28;20029;-73
2021/09/18 00:53:45;;;;;;;27.08;19.60;;;10.20;99.90;;;;;;5030952;28;20056;-72
2021/09/18 00:56:12;;;;;;;22.77;18.05;;;10.20;99.90;;;;;;5031664;28;20391;-72
2021/09/18 00:58:38;;;;;;;28.20;20.25;;;10.20;99.90;;;;;;5030719;28;20029;-72
2021/09/18 01:01:04;;;;;;;24.95;19.52;;;10.30;99.90;;;;;;5032234;28;20108;-72
2021/09/18 01:03:30;;;;;;;23.88;19.45;;;10.30;99.90;;;;;;5031972;28;20033;-73
2021/09/18 01:05:57;;;;;;;25.80;18.30;;;10.30;99.90;;;;;;5031158;28;20116;-71
2021/09/18 01:08:26;;;;;;;22.75;17.73;;;10.30;99.90;;;;;;5030355;28;20442;-72
2021/09/18 01:10:52;;;;;;;20.95;16.00;;;10.30;99.90;;;;;;5031920;28;20030;-73
2021/09/18 01:13:20;;;;;;;19.77;15.02;;;10.30;99.90;;;;;;5031805;28;20029;-73
2021/09/18 01:15:48;;;;;;;20.25;15.98;;;10.20;99.90;;;;;;5031012;28;20031;-72
2021/09/18 01:18:13;;;;;;;20.05;16.08;;;10.20;99.90;;;;;;5031661;28;20101;-72
2021/09/18 01:20:41;;;;;;;25.23;17.60;;;10.30;99.90;;;;;;5031567;28;20179;-72
2021/09/18 01:23:09;;;;;;;25.95;18.90;;;10.30;99.90;;;;;;5031648;28;20060;-72
2021/09/18 01:25:38;;;;;;;28.73;18.95;;;10.20;99.90;;;;;;5030910;28;20025;-72
2021/09/18 01:28:05;;;;;;;33.17;19.67;;;10.20;99.90;;;;;;5031917;28;20468;-72
2021/09/18 01:30:32;;;;;;;35.58;21.52;;;10.20;99.90;;;;;;5031778;28;20028;-72
2021/09/18 01:33:00;;;;;;;30.80;20.23;;;10.10;99.90;;;;;;5031618;28;20022;-73
2021/09/18 01:35:26;;;;;;;31.55;21.83;;;10.00;99.90;;;;;;5031007;28;20060;-71
2021/09/18 01:37:52;;;;;;;27.83;19.73;;;10.00;99.90;;;;;;5031326;28;20083;-72
2021/09/18 01:40:28;;;;;;;28.27;20.00;;;10.00;99.90;;;;;;5034569;28;20499;-72
2021/09/18 01:42:54;;;;;;;27.50;18.75;;;9.90;99.90;;;;;;5038196;28;20025;-71
2021/09/18 01:45:20;;;;;;;26.13;18.10;;;9.90;99.90;;;;;;5037398;28;20037;-73
2021/09/18 01:47:55;;;;;;;26.60;20.05;;;9.90;99.90;;;;;;5038093;28;20040;-73
2021/09/18 01:50:29;;;;;;;27.15;19.83;;;9.80;99.90;;;;;;5037866;28;20029;-72
2021/09/18 01:53:00;;;;;;;25.30;17.90;;;9.90;99.90;;;;;;5037830;28;20480;-71
2021/09/18 01:55:26;;;;;;;25.65;16.80;;;9.80;99.90;;;;;;5037352;28;20060;-72
2021/09/18 01:57:54;;;;;;;18.90;15.52;;;9.80;99.90;;;;;;5037954;28;20022;-72
2021/09/18 02:00:20;;;;;;;23.08;16.02;;;9.70;99.90;;;;;;5037903;28;20025;-72
2021/09/18 02:02:46;;;;;;;22.05;15.93;;;9.70;99.90;;;;;;5037920;28;20396;-73
2021/09/18 02:05:17;;;;;;;21.70;17.70;;;9.70;99.90;;;;;;5036983;28;20391;-72
2021/09/18 02:07:43;;;;;;;20.42;16.63;;;9.80;99.90;;;;;;5037437;28;20468;-72
2021/09/18 02:10:12;;;;;;;21.92;16.98;;;9.70;99.90;;;;;;5037791;28;20053;-73
2021/09/18 02:12:38;;;;;;;17.40;14.95;;;9.70;99.90;;;;;;5036990;28;20014;-72
2021/09/18 02:15:07;;;;;;;26.30;17.20;;;9.60;99.90;;;;;;5037342;28;20025;-72
2021/09/18 02:17:32;;;;;;;26.00;18.67;;;9.60;99.90;;;;;;5037954;28;20109;-72
2021/09/18 02:19:58;;;;;;;27.40;18.40;;;9.60;99.90;;;;;;5037728;28;20076;-72
2021/09/18 02:22:24;;;;;;;27.55;18.85;;;9.60;99.90;;;;;;5037566;28;20028;-72
2021/09/18 02:24:50;;;;;;;23.52;18.13;;;9.60;99.90;;;;;;5034973;28;20479;-72
2021/09/18 02:27:15;;;;;;;22.10;16.38;;;9.50;99.90;;;;;;5037427;28;20025;-72
2021/09/18 02:29:41;;;;;;;22.23;17.05;;;9.50;99.90;;;;;;5036543;28;20088;-72
2021/09/18 02:32:07;;;;;;;28.15;17.98;;;9.50;99.90;;;;;;5037778;28;20420;-72
2021/09/18 02:34:33;;;;;;;23.63;18.40;;;9.50;99.90;;;;;;5035899;28;20120;-72
2021/09/18 02:36:58;;;;;;;23.27;18.75;;;9.40;99.90;;;;;;5036165;28;20032;-72
2021/09/18 02:39:24;;;;;;;20.40;16.67;;;9.20;99.90;;;;;;5037194;28;20029;-72
2021/09/18 02:41:50;;;;;;;23.15;17.73;;;9.10;99.90;;;;;;5037353;28;20096;-72
2021/09/18 02:44:15;;;;;;;24.27;17.33;;;9.10;99.90;;;;;;5035611;28;20071;-72
2021/09/18 02:46:41;;;;;;;21.77;16.35;;;9.00;99.90;;;;;;5037271;28;20595;-73
2021/09/18 02:49:07;;;;;;;18.55;15.77;;;9.00;99.90;;;;;;5036084;28;20031;-74
2021/09/18 02:51:32;;;;;;;24.45;17.60;;;9.00;99.90;;;;;;5035233;28;20053;-72
2021/09/18 02:53:59;;;;;;;21.80;17.33;;;9.10;99.90;;;;;;5033440;28;20427;-72
2021/09/18 02:56:25;;;;;;;22.65;18.17;;;9.20;99.90;;;;;;5033499;28;20017;-71
2021/09/18 02:58:51;;;;;;;24.27;18.95;;;9.40;99.90;;;;;;5033996;28;20079;-73
2021/09/18 03:01:17;;;;;;;22.30;17.42;;;9.50;99.90;;;;;;5034267;28;20053;-72
2021/09/18 03:03:43;;;;;;;22.88;16.73;;;9.50;99.90;;;;;;5034098;28;20033;-73
2021/09/18 03:06:09;;;;;;;23.55;17.60;;;9.50;99.90;;;;;;5033507;28;20124;-73
2021/09/18 03:08:34;;;;;;;26.25;20.45;;;9.60;99.90;;;;;;5033937;28;20029;-73
2021/09/18 03:11:00;;;;;;;25.67;19.17;;;9.50;99.90;;;;;;5031668;28;20021;-73
2021/09/18 03:13:26;;;;;;;27.02;19.17;;;9.50;99.90;;;;;;5034010;28;20028;-73
2021/09/18 03:15:51;;;;;;;24.92;18.05;;;9.50;99.90;;;;;;5039205;28;20029;-74
2021/09/18 03:18:17;;;;;;;28.50;20.55;;;9.50;99.90;;;;;;5036162;28;20043;-75
2021/09/18 03:20:43;;;;;;;33.08;22.35;;;9.50;99.90;;;;;;5034084;28;20022;-73
2021/09/18 03:23:09;;;;;;;38.47;22.50;;;9.50;99.90;;;;;;5033953;28;20033;-74
2021/09/18 03:25:35;;;;;;;34.03;23.23;;;9.40;99.90;;;;;;5033123;28;20025;-74
2021/09/18 03:28:01;;;;;;;32.38;21.75;;;9.40;99.90;;;;;;5033900;28;20033;-71
2021/09/18 03:30:27;;;;;;;30.98;21.02;;;9.40;99.90;;;;;;5032156;28;20067;-73
2021/09/18 03:32:53;;;;;;;23.13;18.00;;;9.40;99.90;;;;;;5032465;28;20021;-73
2021/09/18 03:35:19;;;;;;;23.88;17.30;;;9.30;99.90;;;;;;5031791;28;20029;-73
2021/09/18 03:37:44;;;;;;;20.83;16.63;;;9.00;99.90;;;;;;5032096;28;20029;-73
2021/09/18 03:40:11;;;;;;;92.35;22.30;;;8.80;99.90;;;;;;5033548;28;20103;-73
2021/09/18 03:42:37;;;;;;;34.22;21.02;;;8.90;99.90;;;;;;5033702;28;20075;-73
2021/09/18 03:45:04;;;;;;;26.40;20.48;;;8.90;99.90;;;;;;5032474;28;20025;-73
2021/09/18 03:47:30;;;;;;;27.35;19.63;;;9.00;99.90;;;;;;5033342;28;20036;-74
2021/09/18 03:49:55;;;;;;;28.10;19.50;;;8.90;99.90;;;;;;5033244;28;20022;-72
2021/09/18 03:52:25;;;;;;;28.50;21.77;;;8.90;99.90;;;;;;5033409;28;20463;-72
2021/09/18 03:54:51;;;;;;;31.15;22.00;;;9.00;99.90;;;;;;5032682;28;20021;-73
2021/09/18 03:57:17;;;;;;;30.88;21.02;;;9.10;99.90;;;;;;5033401;28;20075;-72
2021/09/18 03:59:42;;;;;;;38.22;21.33;;;9.20;99.90;;;;;;5031466;28;20029;-73
2021/09/18 04:02:08;;;;;;;29.90;21.48;;;9.20;99.90;;;;;;5033268;28;20468;-74
2021/09/18 04:04:34;;;;;;;29.08;21.88;;;9.20;99.90;;;;;;5032456;28;20037;-74
2021/09/18 04:06:59;;;;;;;28.55;20.50;;;9.10;99.90;;;;;;5032994;28;20029;-73
2021/09/18 04:09:25;;;;;;;28.67;21.08;;;9.20;99.90;;;;;;5032575;28;20037;-73
2021/09/18 04:11:50;;;;;;;26.60;20.27;;;9.20;99.90;;;;;;5032177;28;20079;-73
2021/09/18 04:14:16;;;;;;;24.50;16.95;;;9.20;99.90;;;;;;5032110;28;20428;-73
2021/09/18 04:16:42;;;;;;;52.05;17.20;;;8.90;99.90;;;;;;5032786;28;20036;-73
2021/09/18 04:19:08;;;;;;;25.02;19.45;;;8.90;99.90;;;;;;5031568;28;20487;-73
2021/09/18 04:21:34;;;;;;;25.48;19.42;;;9.10;99.90;;;;;;5031626;28;20074;-73
2021/09/18 04:23:59;;;;;;;25.92;19.70;;;9.10;99.90;;;;;;5032599;28;20045;-73
2021/09/18 04:26:25;;;;;;;27.55;20.25;;;9.10;99.90;;;;;;5032209;28;20065;-73
2021/09/18 04:28:51;;;;;;;22.98;18.15;;;9.20;99.90;;;;;;5032578;28;20033;-73
2021/09/18 04:31:16;;;;;;;22.80;16.90;;;9.00;99.90;;;;;;5032553;28;20498;-73
2021/09/18 04:33:42;;;;;;;20.83;17.42;;;8.90;99.90;;;;;;5032805;28;20025;-75
2021/09/18 04:36:08;;;;;;;21.15;17.08;;;9.00;99.90;;;;;;5026354;28;20621;-79
2021/09/18 04:38:34;;;;;;;23.25;17.58;;;8.90;99.90;;;;;;5030410;28;20480;-78
2021/09/18 04:40:59;;;;;;;19.98;15.98;;;8.80;99.90;;;;;;5034923;28;20040;-79
2021/09/18 04:43:25;;;;;;;23.13;16.70;;;8.80;99.90;;;;;;5034068;28;20387;-80
2021/09/18 04:45:51;;;;;;;30.08;18.38;;;8.80;99.90;;;;;;5032887;28;20087;-78
2021/09/18 04:48:17;;;;;;;25.38;17.88;;;8.80;99.90;;;;;;5032596;28;20014;-78
2021/09/18 04:50:43;;;;;;;23.50;17.90;;;8.80;99.90;;;;;;5032959;28;20021;-79
2021/09/18 04:53:09;;;;;;;41.38;18.67;;;9.00;99.90;;;;;;5033162;28;20511;-78
2021/09/18 04:55:35;;;;;;;37.38;16.55;;;9.00;99.90;;;;;;5031237;28;20049;-77
2021/09/18 04:58:00;;;;;;;15.25;13.00;;;8.70;99.90;;;;;;5031115;28;20029;-79
2021/09/18 05:00:26;;;;;;;24.35;16.90;;;8.60;99.90;;;;;;5034255;28;20099;-78
2021/09/18 05:02:51;;;;;;;19.00;15.25;;;8.70;99.90;;;;;;5032882;28;20076;-78
2021/09/18 05:05:17;;;;;;;19.80;16.90;;;8.50;99.90;;;;;;5032396;28;20523;-78
2021/09/18 05:07:43;;;;;;;29.13;16.63;;;8.30;99.90;;;;;;5034582;28;20029;-79
2021/09/18 05:10:09;;;;;;;24.77;16.15;;;8.20;99.90;;;;;;5033978;28;20017;-79
2021/09/18 05:12:34;;;;;;;19.85;16.05;;;8.20;99.90;;;;;;5033880;28;20033;-78
2021/09/18 05:15:00;;;;;;;19.90;16.10;;;8.20;99.90;;;;;;5032937;28;20040;-79
2021/09/18 05:17:26;;;;;;;20.42;16.23;;;8.20;99.90;;;;;;5032874;28;20026;-80
2021/09/18 05:19:51;;;;;;;19.38;16.67;;;8.20;99.90;;;;;;5033346;28;20029;-80
2021/09/18 05:22:17;;;;;;;20.50;16.35;;;8.30;99.90;;;;;;5034873;28;20689;-79
2021/09/18 05:24:43;;;;;;;21.27;16.90;;;8.20;99.90;;;;;;5033183;28;20064;-79
2021/09/18 05:27:08;;;;;;;20.23;16.17;;;8.20;99.90;;;;;;5033160;28;20049;-79
2021/09/18 05:29:34;;;;;;;21.67;17.20;;;8.30;99.90;;;;;;5032183;28;20084;-78
2021/09/18 05:32:00;;;;;;;22.45;17.27;;;8.40;99.90;;;;;;5033696;28;20022;-80
2021/09/18 05:34:26;;;;;;;21.27;17.20;;;8.40;99.90;;;;;;5032921;28;20028;-80
2021/09/18 05:36:51;;;;;;;24.08;17.40;;;8.30;99.90;;;;;;5033196;28;20033;-80
2021/09/18 05:39:17;;;;;;;19.55;15.80;;;8.30;99.90;;;;;;5032976;28;20456;-79
2021/09/18 05:41:43;;;;;;;21.38;16.60;;;8.30;99.90;;;;;;5033350;28;20033;-80
2021/09/18 05:44:10;;;;;;;26.52;18.70;;;8.40;99.90;;;;;;5035190;28;20032;-80
2021/09/18 05:46:35;;;;;;;19.73;16.33;;;8.50;99.90;;;;;;5034354;28;20025;-79
2021/09/18 05:49:01;;;;;;;19.02;15.88;;;8.60;99.90;;;;;;5033464;28;20029;-80
2021/09/18 05:51:27;;;;;;;22.30;15.52;;;8.40;99.90;;;;;;5034901;28;20040;-79
2021/09/18 05:53:52;;;;;;;21.45;16.67;;;8.30;99.90;;;;;;5034731;28;20025;-79
2021/09/18 05:56:18;;;;;;;20.23;16.25;;;8.30;99.90;;;;;;5033723;28;20048;-79
2021/09/18 05:58:44;;;;;;;20.95;16.42;;;8.50;99.90;;;;;;5034631;28;20061;-79
2021/09/18 06:01:09;;;;;;;22.33;16.88;;;8.70;99.90;;;;;;5035297;28;20064;-79
2021/09/18 06:03:35;;;;;;;22.85;17.20;;;8.80;99.90;;;;;;5035568;28;20029;-80
2021/09/18 06:06:01;;;;;;;22.95;17.52;;;8.90;99.90;;;;;;5035093;28;20136;-80
2021/09/18 06:08:28;;;;;;;21.05;16.98;;;9.00;99.90;;;;;;5033944;28;20456;-80
2021/09/18 06:10:54;;;;;;;23.20;18.10;;;9.00;99.90;;;;;;5035463;28;20437;-79
2021/09/18 06:13:19;;;;;;;22.90;17.08;;;9.10;99.90;;;;;;5035393;28;20033;-80
2021/09/18 06:15:45;;;;;;;23.30;17.08;;;9.10;99.90;;;;;;5042449;28;20440;-80
2021/09/18 06:18:11;;;;;;;22.33;16.13;;;9.10;99.90;;;;;;5038145;28;20033;-79
2021/09/18 06:20:36;;;;;;;19.83;15.55;;;8.90;99.90;;;;;;5044377;28;20527;-80
2021/09/18 06:23:02;;;;;;;17.48;15.07;;;9.10;99.90;;;;;;5041619;28;20056;-80
2021/09/18 06:25:28;;;;;;;18.95;15.55;;;9.10;99.90;;;;;;5029599;28;20472;-80
2021/09/18 06:27:53;;;;;;;17.35;14.43;;;9.30;99.90;;;;;;5022925;28;20101;-79
2021/09/18 06:30:19;;;;;;;19.50;15.85;;;9.40;99.90;;;;;;5036042;28;20029;-80
2021/09/18 06:32:45;;;;;;;16.23;14.32;;;9.50;99.90;;;;;;5047814;28;20048;-79
2021/09/18 06:35:10;;;;;;;16.35;13.55;;;9.70;99.90;;;;;;5039628;28;20026;-81
2021/09/18 06:37:45;;;;;;;17.83;14.18;;;9.60;99.90;;;;;;5053501;28;20044;-84
2021/09/18 06:40:12;;;;;;;15.32;13.60;;;9.60;99.90;;;;;;5040319;28;20140;-81
2021/09/18 06:42:39;;;;;;;16.20;12.75;;;9.60;99.90;;;;;;5039071;28;20026;-80
2021/09/18 06:45:06;;;;;;;14.77;12.18;;;9.70;99.90;;;;;;5038218;28;20494;-80
2021/09/18 06:47:31;;;;;;;12.25;10.98;;;9.40;99.90;;;;;;5038957;28;20029;-79
2021/09/18 06:49:57;;;;;;;13.75;11.57;;;9.30;99.90;;;;;;5038403;28;20025;-80
2021/09/18 06:52:23;;;;;;;18.30;12.75;;;9.20;99.90;;;;;;5038408;28;20383;-81
2021/09/18 06:54:48;;;;;;;14.18;11.40;;;9.20;99.90;;;;;;5036385;28;20026;-81
2021/09/18 06:57:14;;;;;;;12.90;11.45;;;9.20;99.90;;;;;;5037941;28;20036;-79
2021/09/18 06:59:39;;;;;;;14.05;11.98;;;9.30;99.90;;;;;;5035849;28;20044;-80
2021/09/18 07:02:06;;;;;;;14.13;12.35;;;9.50;99.90;;;;;;5036534;28;20037;-83
2021/09/18 07:04:31;;;;;;;14.75;11.40;;;9.60;99.90;;;;;;5036577;28;20022;-80
2021/09/18 07:06:57;;;;;;;13.65;12.18;;;9.80;99.90;;;;;;5036020;28;20039;-81
2021/09/18 07:09:23;;;;;;;13.65;12.25;;;10.10;99.90;;;;;;5038760;28;20029;-81
2021/09/18 07:11:48;;;;;;;16.80;13.20;;;10.20;99.90;;;;;;5046643;28;20108;-79
2021/09/18 07:14:14;;;;;;;14.60;13.10;;;10.30;99.90;;;;;;5055552;28;20379;-77
2021/09/18 07:16:39;;;;;;;13.80;12.27;;;10.50;99.90;;;;;;5054005;28;20048;-79
2021/09/18 07:19:05;;;;;;;14.18;11.52;;;10.60;99.90;;;;;;5049312;28;20033;-81
2021/09/18 07:21:31;;;;;;;13.48;12.07;;;10.70;99.90;;;;;;5034761;28;20025;-79
2021/09/18 07:23:56;;;;;;;12.45;11.27;;;10.70;99.90;;;;;;5035283;28;20037;-79
2021/09/18 07:26:22;;;;;;;12.73;11.38;;;10.80;99.90;;;;;;5034792;28;20026;-78
2021/09/18 07:28:48;;;;;;;11.70;10.55;;;11.00;99.90;;;;;;5033731;28;20021;-79
2021/09/18 07:31:15;;;;;;;11.45;10.20;;;11.00;99.90;;;;;;5034936;28;20072;-81
2021/09/18 07:33:40;;;;;;;11.80;9.70;;;11.20;99.90;;;;;;5035854;28;20464;-79
2021/09/18 07:36:06;;;;;;;11.25;10.18;;;11.30;99.90;;;;;;5035428;28;20029;-79
2021/09/18 07:38:32;;;;;;;11.43;9.82;;;11.30;99.90;;;;;;5035257;28;20068;-80
2021/09/18 07:40:57;;;;;;;10.88;9.77;;;11.40;99.90;;;;;;5038074;28;20021;-78
2021/09/18 07:43:23;;;;;;;12.65;8.40;;;11.60;99.90;;;;;;5054531;28;20040;-78
2021/09/18 07:45:50;;;;;;;10.13;9.15;;;11.70;99.90;;;;;;5054362;28;20028;-80
2021/09/18 07:48:16;;;;;;;10.63;9.57;;;11.70;99.90;;;;;;5056296;28;20131;-78
2021/09/18 07:50:41;;;;;;;10.75;9.00;;;11.80;99.90;;;;;;5058598;28;20064;-78
2021/09/18 07:53:07;;;;;;;9.75;8.75;;;12.00;99.90;;;;;;5055253;28;21003;-78
2021/09/18 07:55:34;;;;;;;10.00;8.75;;;12.20;99.90;;;;;;5052641;28;20536;-77
2021/09/18 07:58:01;;;;;;;10.13;8.98;;;12.30;99.90;;;;;;5052351;28;20510;-78
2021/09/18 08:00:26;;;;;;;8.95;8.15;;;12.50;99.90;;;;;;5053009;28;20036;-79
2021/09/18 08:02:52;;;;;;;10.20;8.35;;;12.90;99.90;;;;;;5052023;28;20028;-78
2021/09/18 08:05:21;;;;;;;8.55;7.60;;;13.20;99.90;;;;;;5046914;28;20024;-80
2021/09/18 08:07:47;;;;;;;7.97;7.18;;;13.30;99.90;;;;;;5034708;28;20025;-79
2021/09/18 08:10:14;;;;;;;8.20;7.40;;;13.40;99.90;;;;;;5033184;28;20025;-79
2021/09/18 08:12:42;;;;;;;7.88;5.97;;;13.50;99.90;;;;;;5050215;28;20028;-79
2021/09/18 08:15:08;;;;;;;7.57;6.05;;;13.70;99.90;;;;;;5052924;28;20451;-79
2021/09/18 08:17:34;;;;;;;6.88;6.28;;;14.20;99.90;;;;;;5051913;28;20036;-78
2021/09/18 08:19:59;;;;;;;6.18;5.57;;;14.90;99.90;;;;;;5052053;28;20025;-79
2021/09/18 08:22:25;;;;;;;5.28;4.78;;;15.10;99.90;;;;;;5053197;28;20468;-79
2021/09/18 08:24:54;;;;;;;6.20;5.57;;;15.30;99.90;;;;;;5052897;28;20068;-78
2021/09/18 08:27:20;;;;;;;5.25;4.75;;;15.70;99.90;;;;;;5053818;28;20024;-79
2021/09/18 08:29:45;;;;;;;5.60;5.03;;;15.70;99.90;;;;;;5050386;28;20028;-79
2021/09/18 08:32:11;;;;;;;7.03;5.10;;;16.40;99.90;;;;;;5033043;28;20073;-79
2021/09/18 08:34:36;;;;;;;5.07;4.60;;;16.60;99.90;;;;;;5032314;28;20395;-77
2021/09/18 08:37:03;;;;;;;4.53;4.20;;;17.20;99.90;;;;;;5031191;28;20082;-76
2021/09/18 08:39:28;;;;;;;5.57;4.43;;;17.70;99.90;;;;;;5034861;28;20030;-77
2021/09/18 08:41:54;;;;;;;4.57;4.10;;;17.90;99.90;;;;;;5035500;28;20027;-78
2021/09/18 08:44:20;;;;;;;4.70;3.92;;;17.70;99.90;;;;;;5031713;28;20037;-78
2021/09/18 08:46:47;;;;;;;4.50;4.20;;;18.10;99.90;;;;;;5032159;28;20026;-80
2021/09/18 08:49:13;;;;;;;4.70;4.30;;;17.90;99.90;;;;;;5031690;28;20143;-77
2021/09/18 08:51:40;;;;;;;6.97;5.30;;;17.80;99.90;;;;;;5031814;28;20471;-77
2021/09/18 08:54:06;;;;;;;6.28;4.65;;;17.50;99.90;;;;;;5032372;28;20394;-78
2021/09/18 08:56:32;;;;;;;5.28;4.78;;;18.00;99.90;;;;;;5032301;28;20025;-78
2021/09/18 08:58:58;;;;;;;6.97;5.30;;;18.30;99.90;;;;;;5032272;28;20064;-79
2021/09/18 09:01:26;;;;;;;5.78;5.32;;;18.80;99.90;;;;;;5032662;28;20101;-78
2021/09/18 09:03:57;;;;;;;6.35;5.20;;;18.80;99.90;;;;;;5032178;28;20032;-79
2021/09/18 09:06:22;;;;;;;5.15;4.75;;;19.30;99.90;;;;;;5031732;28;20176;-77
2021/09/18 09:08:57;;;;;;;5.13;4.63;;;19.70;99.90;;;;;;5032621;28;20544;-79
2021/09/18 09:11:27;;;;;;;4.30;3.90;;;19.80;99.90;;;;;;5032607;28;20433;-78
2021/09/18 09:13:58;;;;;;;4.47;4.13;;;20.10;99.90;;;;;;5037442;28;20048;-81
2021/09/18 09:16:24;;;;;;;4.93;4.47;;;20.20;99.90;;;;;;5038684;28;20079;-80
2021/09/18 09:18:50;;;;;;;4.20;3.67;;;19.80;99.90;;;;;;5036240;28;20037;-79
2021/09/18 09:21:20;;;;;;;5.32;3.35;;;20.90;99.90;;;;;;5042049;28;20029;-80
2021/09/18 09:24:05;;;;;;;4.68;3.47;;;21.90;99.90;;;;;;5038587;28;20395;-80
2021/09/18 09:26:36;;;;;;;3.55;3.25;;;22.40;99.90;;;;;;5046489;28;20024;-80
2021/09/18 09:29:02;;;;;;;4.70;3.78;;;22.40;99.90;;;;;;5042332;28;20029;-79
2021/09/18 09:31:32;;;;;;;3.50;3.20;;;22.80;99.90;;;;;;5038528;28;20425;-80
2021/09/18 09:34:14;;;;;;;5.53;3.60;;;23.80;99.90;;;;;;5044898;28;20159;-80
2021/09/18 09:36:50;;;;;;;31.85;4.55;;;22.80;99.90;;;;;;5042647;28;20124;-78
2021/09/18 09:39:21;;;;;;;5.75;3.67;;;23.00;99.90;;;;;;5038891;28;20018;-79
2021/09/18 09:41:53;;;;;;;4.03;3.30;;;22.70;99.90;;;;;;5037813;28;20034;-79
2021/09/18 09:44:21;;;;;;;3.85;3.47;;;21.70;99.90;;;;;;5041044;28;20108;-78
2021/09/18 09:47:08;;;;;;;3.70;3.50;;;21.80;99.90;;;;;;5036819;28;20061;-78
2021/09/18 09:49:48;;;;;;;8.63;3.58;;;24.10;99.90;;;;;;5012640;28;20026;-78
2021/09/18 09:52:30;;;;;;;3.45;3.15;;;24.80;99.70;;;;;;5012660;28;20029;-78
2021/09/18 09:55:13;;;;;;;3.10;2.70;;;23.90;99.70;;;;;;5033060;28;20045;-78
2021/09/18 09:57:43;;;;;;;3.40;3.10;;;23.70;99.90;;;;;;5049300;28;20025;-81
2021/09/18 10:00:11;;;;;;;2.95;2.75;;;24.80;98.10;;;;;;5051246;28;20017;-81
2021/09/18 10:02:38;;;;;;;2.80;2.60;;;25.00;98.30;;;;;;5048486;28;20112;-81
2021/09/18 10:05:12;;;;;;;2.70;2.28;;;26.00;95.60;;;;;;5044801;28;20149;-81
2021/09/18 10:07:39;;;;;;;3.15;2.40;;;25.40;95.60;;;;;;5045533;28;20048;-80
2021/09/18 10:10:07;;;;;;;3.33;2.10;;;25.40;95.50;;;;;;5048750;28;20087;-80
2021/09/18 10:12:33;;;;;;;2.28;2.13;;;25.40;94.50;;;;;;5047218;28;20472;-80
2021/09/18 10:15:07;;;;;;;2.13;2.00;;;25.10;94.90;;;;;;5043507;28;20025;-83
2021/09/18 10:17:37;;;;;;;3.40;2.38;;;25.30;94.20;;;;;;5054410;28;20045;-80
2021/09/18 10:25:32;;;;;;;2.42;2.20;;;24.30;94.70;;;;;;5047344;28;20028;-81
2021/09/18 10:28:10;;;;;;;1.70;1.60;;;24.60;95.30;;;;;;5049137;28;20076;-81
2021/09/18 10:30:41;;;;;;;2.13;2.03;;;25.30;94.40;;;;;;5043425;28;20171;-80
2021/09/18 10:33:25;;;;;;;2.87;1.90;;;26.10;94.00;;;;;;5051529;28;20487;-81
2021/09/18 10:36:00;;;;;;;2.65;2.00;;;27.80;93.70;;;;;;5038981;28;20278;-81
2021/09/18 10:38:32;;;;;;;2.15;1.98;;;28.10;90.60;;;;;;5045839;28;20030;-81
2021/09/18 10:40:59;;;;;;;1.92;1.83;;;27.80;90.80;;;;;;5044791;28;20484;-80
2021/09/18 10:43:44;;;;;;;2.60;1.80;;;27.70;89.30;;;;;;5042224;28;20032;-79
2021/09/18 10:46:31;;;;;;;1.95;1.70;;;26.80;90.70;;;;;;5036547;28;20163;-78
2021/09/18 10:48:57;;;;;;;2.10;1.90;;;27.00;90.50;;;;;;5036868;28;20488;-78
2021/09/18 10:51:40;;;;;;;1.88;1.77;;;28.10;90.00;;;;;;5036949;28;20021;-79
2021/09/18 10:54:13;;;;;;;1.98;1.88;;;28.60;91.20;;;;;;5039178;28;20025;-80
2021/09/18 10:57:05;;;;;;;1.83;1.73;;;27.50;86.50;;;;;;5050513;28;20512;-79
2021/09/18 10:59:51;;;;;;;1.98;1.80;;;28.70;85.60;;;;;;5055300;28;20486;-81
2021/09/18 11:02:34;;;;;;;3.05;1.80;;;27.80;84.90;;;;;;5052047;28;20021;-78
2021/09/18 11:05:28;;;;;;;1.90;1.80;;;27.80;86.20;;;;;;5013861;28;20034;-78
2021/09/18 11:08:02;;;;;;;1.90;1.80;;;27.40;89.40;;;;;;5013476;28;20029;-79
2021/09/18 11:10:30;;;;;;;5.35;1.67;;;28.10;87.10;;;;;;5015405;28;20120;-78
2021/09/18 11:13:11;;;;;;;1.52;1.42;;;29.30;86.60;;;;;;5016025;28;20025;-79
2021/09/18 11:15:40;;;;;;;1.77;1.27;;;28.60;82.80;;;;;;5034403;28;20428;-80
2021/09/18 11:18:13;;;;;;;1.50;1.40;;;29.10;84.80;;;;;;5035470;28;20048;-79
2021/09/18 11:20:38;;;;;;;1.35;1.30;;;29.30;83.10;;;;;;5033816;28;20025;-79
2021/09/18 11:23:04;;;;;;;1.60;1.50;;;27.60;80.00;;;;;;5034091;28;20083;-79
2021/09/18 11:25:36;;;;;;;1.52;1.30;;;27.50;82.10;;;;;;5028104;28;20032;-79
2021/09/18 11:28:07;;;;;;;3.05;1.50;;;28.10;80.50;;;;;;5032016;28;20104;-83
2021/09/18 11:30:43;;;;;;;1.60;1.17;;;28.10;85.50;;;;;;5036784;28;20029;-82
2021/09/18 11:33:14;;;;;;;2.15;1.38;;;28.20;81.90;;;;;;5036625;28;20022;-83
2021/09/18 11:35:49;;;;;;;3.78;1.63;;;28.10;82.00;;;;;;5021228;28;20034;-82
2021/09/18 11:38:15;;;;;;;1.13;1.13;;;28.70;82.50;;;;;;5016861;28;20034;-83
2021/09/18 11:40:40;;;;;;;1.65;1.13;;;29.40;78.20;;;;;;5013925;28;20036;-83
2021/09/18 11:43:06;;;;;;;1.08;1.08;;;29.50;75.10;;;;;;5016261;28;20587;-83
2021/09/18 11:45:38;;;;;;;1.00;1.00;;;29.20;78.50;;;;;;5032396;28;20475;-83
2021/09/18 11:48:07;;;;;;;1.10;1.10;;;28.30;76.10;;;;;;5033882;28;20104;-82
2021/09/18 11:50:38;;;;;;;1.13;1.13;;;28.40;73.00;;;;;;5035174;28;20018;-82
2021/09/18 11:53:07;;;;;;;1.10;1.10;;;28.80;75.30;;;;;;5035589;28;20075;-82
2021/09/18 11:55:32;;;;;;;2.25;1.10;;;28.80;74.30;;;;;;5034289;28;20025;-83
2021/09/18 11:58:05;;;;;;;1.05;1.05;;;29.10;71.80;;;;;;5034729;28;20041;-83
2021/09/18 12:00:31;;;;;;;2.42;1.20;;;29.80;72.80;;;;;;5035402;28;20673;-86
2021/09/18 12:02:57;;;;;;;3.42;1.30;;;30.10;76.30;;;;;;5035557;28;20051;-82
2021/09/18 12:05:24;;;;;;;2.15;1.00;;;30.20;73.10;;;;;;5034993;28;20092;-84
2021/09/18 12:07:51;;;;;;;2.40;1.27;;;29.60;73.00;;;;;;5034637;28;20017;-81
2021/09/18 12:10:21;;;;;;;1.10;1.10;;;29.40;71.90;;;;;;5035050;28;20111;-83
2021/09/18 12:12:53;;;;;;;2.60;1.30;;;28.90;75.90;;;;;;5034787;28;20677;-83
2021/09/18 12:15:52;;;;;;;1.30;1.20;;;28.30;76.70;;;;;;5012751;28;20392;-84
2021/09/18 12:18:27;;;;;;;1.92;1.70;;;28.50;76.00;;;;;;4961517;28;20041;-83
2021/09/18 12:20:58;;;;;;;1.42;1.35;;;28.30;72.70;;;;;;5014534;28;20034;-85
2021/09/18 12:23:24;;;;;;;1.67;1.42;;;28.00;72.40;;;;;;5014467;28;20102;-84
2021/09/18 12:25:59;;;;;;;1.77;1.30;;;27.70;76.20;;;;;;5013811;28;20069;-84
2021/09/18 12:28:27;;;;;;;1.60;1.40;;;27.80;74.00;;;;;;5015332;28;20030;-85
2021/09/18 12:30:53;;;;;;;1.33;1.23;;;27.40;73.00;;;;;;5014082;28;20017;-81
2021/09/18 12:33:35;;;;;;;1.35;1.25;;;27.20;74.80;;;;;;5013338;28;20026;-79
2021/09/18 12:36:05;;;;;;;1.40;1.30;;;27.20;75.10;;;;;;5012388;28;20084;-79
2021/09/18 12:38:31;;;;;;;1.60;1.50;;;27.60;76.20;;;;;;5013213;28;20029;-79
2021/09/18 12:41:01;;;;;;;2.38;1.30;;;27.50;74.40;;;;;;5029929;28;20494;-79
2021/09/18 12:43:27;;;;;;;2.10;1.13;;;27.40;76.00;;;;;;5044431;28;20025;-80
2021/09/18 12:46:13;;;;;;;1.52;1.42;;;27.60;73.60;;;;;;5052123;28;20036;-80